Time;durP1;ratioP1;P1;durP2;ratioP2;P2;SDS_P1;SDS_P2;PMS_P1;PMS_P2;Temp;Humidity;BMP_temperature;BMP_pressure;BME280_temperature;BME280_humidity;BME280_pressure;Samples;Min_cycle;Max_cycle;Signal;HPM_P1;HPM_P2
2023/06/07 00:02:22;;;;;;;2.45;2.25;;;;;;;22.84;50.15;101987.19;5048072;28;20463;-54
2023/06/07 00:04:48;;;;;;;2.33;1.92;;;;;;;22.84;50.12;101979.03;5046586;28;20260;-54
2023/06/07 00:07:13;;;;;;;2.53;2.25;;;;;;;22.83;49.97;101978.19;5042547;28;20414;-54
2023/06/07 00:09:39;;;;;;;2.45;2.10;;;;;;;22.82;50.19;101979.19;5043566;28;20069;-54
2023/06/07 00:12:06;;;;;;;2.10;1.90;;;;;;;22.82;50.09;101979.19;5046374;28;20375;-54
2023/06/07 00:14:31;;;;;;;2.00;1.80;;;;;;;22.83;49.89;101980.06;5046533;28;20390;-54
2023/06/07 00:16:58;;;;;;;2.15;1.95;;;;;;;22.82;49.96;101987.31;5045706;28;20120;-54
2023/06/07 00:19:27;;;;;;;2.92;2.17;;;;;;;22.82;50.09;101986.47;5047834;28;20034;-54
2023/06/07 00:21:53;;;;;;;2.97;2.42;;;;;;;22.82;49.75;101983.78;5056292;28;20463;-53
2023/06/07 00:24:19;;;;;;;2.40;2.08;;;;;;;22.81;50.33;101984.78;5050155;28;20033;-53
2023/06/07 00:26:45;;;;;;;3.05;2.22;;;;;;;22.81;50.22;101979.34;5050325;28;20056;-54
2023/06/07 00:29:11;;;;;;;3.17;1.85;;;;;;;22.80;50.33;101986.63;5051329;28;20079;-54
2023/06/07 00:31:36;;;;;;;2.30;2.00;;;;;;;22.80;50.06;101988.50;5051111;28;20032;-54
2023/06/07 00:34:02;;;;;;;2.67;2.17;;;;;;;22.80;49.92;101988.50;5049972;28;20037;-54
2023/06/07 00:36:29;;;;;;;3.03;2.30;;;;;;;22.80;50.22;101983.91;5049049;28;20111;-54
2023/06/07 00:38:54;;;;;;;2.13;2.00;;;;;;;22.78;49.85;101983.22;5050284;28;20032;-54
2023/06/07 00:41:20;;;;;;;1.75;1.65;;;;;;;22.80;49.79;101980.34;5047345;28;20035;-54
2023/06/07 00:43:47;;;;;;;2.33;2.13;;;;;;;22.79;49.78;101979.50;5052159;28;20119;-54
2023/06/07 00:46:14;;;;;;;2.58;2.03;;;;;;;22.78;50.18;101982.38;5052251;28;20058;-54
2023/06/07 00:48:40;;;;;;;2.45;2.10;;;;;;;22.79;49.82;101981.34;5050375;28;20048;-54
2023/06/07 00:51:06;;;;;;;2.10;1.90;;;;;;;22.78;49.68;101983.22;5049126;28;20052;-54
2023/06/07 00:53:32;;;;;;;2.35;2.15;;;;;;;22.77;49.69;101977.94;5049478;28;20033;-54
2023/06/07 00:55:58;;;;;;;3.05;2.10;;;;;;;22.76;50.16;101982.50;5049326;28;20043;-54
2023/06/07 00:58:25;;;;;;;1.88;1.77;;;;;;;22.77;50.14;101983.34;5049759;28;20033;-54
2023/06/07 01:00:51;;;;;;;2.67;2.30;;;;;;;22.77;50.22;101977.94;5047104;28;20036;-54
2023/06/07 01:03:17;;;;;;;2.85;2.13;;;;;;;22.77;49.98;101978.81;5047035;28;20030;-53
2023/06/07 01:05:44;;;;;;;1.80;1.60;;;;;;;22.77;50.02;101975.22;5049405;28;20445;-54
2023/06/07 01:08:09;;;;;;;3.75;2.13;;;;;;;22.75;50.01;101978.09;5049863;28;20045;-54
2023/06/07 01:10:36;;;;;;;1.98;1.88;;;;;;;22.75;49.64;101986.25;5048431;28;20037;-54
2023/06/07 01:13:02;;;;;;;2.40;2.13;;;;;;;22.75;49.93;101978.09;5049119;28;20116;-54
2023/06/07 01:15:28;;;;;;;2.03;1.83;;;;;;;22.73;50.17;101982.84;5048910;28;20442;-53
2023/06/07 01:17:54;;;;;;;2.03;1.80;;;;;;;22.74;49.61;101976.38;5050373;28;20036;-54
2023/06/07 01:20:23;;;;;;;2.53;2.13;;;;;;;22.74;49.63;101975.53;5048733;28;20029;-54
2023/06/07 01:22:51;;;;;;;2.35;2.15;;;;;;;22.74;50.00;101970.09;5052043;28;20434;-54
2023/06/07 01:25:17;;;;;;;2.28;2.08;;;;;;;22.73;49.46;101966.53;5052812;28;20037;-54
2023/06/07 01:27:45;;;;;;;2.72;2.00;;;;;;;22.73;49.54;101966.53;5050123;28;20037;-54
2023/06/07 01:30:12;;;;;;;2.38;2.17;;;;;;;22.72;49.59;101964.81;5048455;28;20029;-54
2023/06/07 01:32:40;;;;;;;2.50;2.03;;;;;;;22.72;49.55;101969.41;5048403;28;20128;-54
2023/06/07 01:35:08;;;;;;;2.20;2.00;;;;;;;22.72;49.71;101967.53;5049202;28;20383;-54
2023/06/07 01:37:35;;;;;;;2.30;2.00;;;;;;;22.72;49.79;101972.13;5048937;28;20041;-54
2023/06/07 01:40:04;;;;;;;3.10;2.35;;;;;;;22.71;49.77;101965.81;5049631;28;20068;-54
2023/06/07 01:42:29;;;;;;;3.17;2.08;;;;;;;22.72;49.92;101958.53;5048237;28;20056;-54
2023/06/07 01:44:56;;;;;;;2.30;2.10;;;;;;;22.70;49.96;101961.41;5048857;28;20034;-54
2023/06/07 01:47:22;;;;;;;2.25;2.13;;;;;;;22.71;49.94;101967.66;5047767;28;20050;-54
2023/06/07 01:49:47;;;;;;;3.03;2.13;;;;;;;22.70;49.97;101965.97;5048444;28;20025;-54
2023/06/07 01:52:12;;;;;;;3.60;2.25;;;;;;;22.71;49.48;101973.09;5049828;28;20110;-54
2023/06/07 01:54:39;;;;;;;2.42;2.10;;;;;;;22.69;49.94;101962.38;5048278;28;20029;-54
2023/06/07 01:57:33;;;;;;;2.67;2.45;;;;;;;22.72;49.80;101966.69;5048423;28;20025;-54
2023/06/07 02:00:10;;;;;;;2.60;2.40;;;;;;;22.70;49.76;101960.56;5051477;28;20171;-54
2023/06/07 02:03:11;;;;;;;1.95;1.85;;;;;;;22.71;49.53;101959.53;5048580;28;20056;-54
2023/06/07 02:05:48;;;;;;;2.40;2.20;;;;;;;22.70;49.86;101955.97;5058757;28;20029;-54
2023/06/07 02:08:25;;;;;;;2.38;2.03;;;;;;;22.68;49.88;101952.56;5048277;28;20029;-54
2023/06/07 02:10:51;;;;;;;2.50;2.30;;;;;;;22.68;49.93;101951.69;5048038;28;20033;-54
2023/06/07 02:13:18;;;;;;;2.92;2.35;;;;;;;22.67;49.27;101958.97;5048362;28;20474;-54
2023/06/07 02:15:45;;;;;;;2.50;2.30;;;;;;;22.67;49.23;101963.56;5054376;28;20120;-54
2023/06/07 02:18:11;;;;;;;2.92;2.20;;;;;;;22.67;49.69;101955.41;5047129;28;20064;-53
2023/06/07 02:20:37;;;;;;;2.78;2.10;;;;;;;22.65;49.25;101953.69;5048444;28;20033;-54
2023/06/07 02:23:03;;;;;;;2.75;2.40;;;;;;;22.65;49.69;101950.13;5055408;28;20116;-54
2023/06/07 02:25:28;;;;;;;2.10;1.75;;;;;;;22.65;49.38;101956.41;5049830;28;20467;-54
2023/06/07 02:27:54;;;;;;;2.47;2.28;;;;;;;22.64;49.82;101959.28;5048312;28;20030;-54
2023/06/07 02:30:20;;;;;;;2.70;2.15;;;;;;;22.64;49.40;101957.44;5049054;28;20379;-54
2023/06/07 02:32:48;;;;;;;2.85;2.45;;;;;;;22.63;49.58;101957.56;5047979;28;20100;-54
2023/06/07 02:35:15;;;;;;;2.42;2.22;;;;;;;22.63;49.30;101954.84;5050439;28;20040;-54
2023/06/07 02:37:40;;;;;;;2.35;2.15;;;;;;;22.62;49.35;101959.44;5052402;28;20471;-54
2023/06/07 02:40:08;;;;;;;3.22;2.60;;;;;;;22.63;49.60;101955.69;5048529;28;20035;-54
2023/06/07 02:42:34;;;;;;;2.50;2.28;;;;;;;22.61;49.47;101963.13;5047101;28;20040;-54
2023/06/07 02:45:01;;;;;;;2.33;2.10;;;;;;;22.62;49.66;101955.88;5047522;28;20021;-54
2023/06/07 02:47:27;;;;;;;2.53;2.28;;;;;;;22.62;49.54;101955.88;5046417;28;20044;-54
2023/06/07 02:49:52;;;;;;;3.05;2.40;;;;;;;22.62;49.28;101961.31;5046827;28;20505;-54
2023/06/07 02:52:18;;;;;;;2.47;2.25;;;;;;;22.60;49.66;101956.00;5047186;28;20471;-53
2023/06/07 02:54:43;;;;;;;2.40;2.20;;;;;;;22.61;49.60;101957.72;5047764;28;20037;-54
2023/06/07 02:57:08;;;;;;;2.25;2.05;;;;;;;22.62;49.44;101958.59;5042285;28;20226;-54
2023/06/07 02:59:34;;;;;;;2.50;2.30;;;;;;;22.62;49.25;101958.59;5046609;28;20391;-54
2023/06/07 03:01:59;;;;;;;2.83;2.53;;;;;;;22.62;49.59;101958.59;5046716;28;20086;-54
2023/06/07 03:04:26;;;;;;;2.20;2.00;;;;;;;22.60;49.48;101966.03;5047021;28;20033;-54
2023/06/07 03:06:52;;;;;;;2.60;2.38;;;;;;;22.59;48.89;101954.28;5045946;28;20044;-54
2023/06/07 03:09:18;;;;;;;2.50;2.10;;;;;;;22.59;48.92;101959.72;5046562;28;20387;-54
2023/06/07 03:11:44;;;;;;;2.55;2.28;;;;;;;22.58;49.52;101958.03;5052579;28;20083;-54
2023/06/07 03:14:09;;;;;;;2.75;2.13;;;;;;;22.59;49.46;101956.16;5046858;28;20032;-54
2023/06/07 03:16:35;;;;;;;2.22;2.03;;;;;;;22.58;49.21;101963.47;5047143;28;20084;-54
2023/06/07 03:19:00;;;;;;;2.53;2.10;;;;;;;22.57;49.14;101959.03;5046384;28;20152;-54
2023/06/07 03:21:25;;;;;;;3.47;2.40;;;;;;;22.58;49.14;101960.75;5053261;28;20063;-55
2023/06/07 03:23:53;;;;;;;2.65;2.40;;;;;;;22.57;49.50;101964.44;5047509;28;20033;-54
2023/06/07 03:26:18;;;;;;;3.47;2.28;;;;;;;22.57;49.08;101963.59;5049769;28;20040;-54
2023/06/07 03:28:44;;;;;;;3.17;2.60;;;;;;;22.57;49.06;101964.44;5046424;28;20041;-54
2023/06/07 03:31:09;;;;;;;2.45;2.20;;;;;;;22.56;49.41;101957.31;5045393;28;20108;-54
2023/06/07 03:33:35;;;;;;;2.38;2.17;;;;;;;22.56;49.09;101960.03;5048998;28;20107;-53
2023/06/07 03:36:00;;;;;;;2.55;2.13;;;;;;;22.56;49.46;101968.19;5048955;28;20483;-54
2023/06/07 03:38:25;;;;;;;2.33;2.13;;;;;;;22.55;49.32;101961.03;5046248;28;20069;-54
2023/06/07 03:40:51;;;;;;;3.47;2.20;;;;;;;22.55;48.90;101974.59;5046443;28;20043;-54
2023/06/07 03:43:16;;;;;;;2.92;2.35;;;;;;;22.56;48.97;101972.72;5047270;28;20534;-54
2023/06/07 03:45:41;;;;;;;2.40;2.20;;;;;;;22.55;49.17;101968.31;5044547;28;20047;-54
2023/06/07 03:48:07;;;;;;;2.97;2.13;;;;;;;22.55;49.53;101968.31;5045688;28;20053;-54
2023/06/07 03:50:32;;;;;;;2.92;2.05;;;;;;;22.54;49.27;101962.06;5046264;28;20029;-54
2023/06/07 03:52:58;;;;;;;2.45;2.20;;;;;;;22.54;49.24;101972.03;5044929;28;20033;-54
2023/06/07 03:55:23;;;;;;;2.20;2.00;;;;;;;22.53;49.28;101968.47;5046330;28;20029;-54
2023/06/07 03:57:48;;;;;;;3.42;2.35;;;;;;;22.53;49.30;101973.06;5046045;28;20471;-54
2023/06/07 04:00:15;;;;;;;2.97;2.05;;;;;;;22.53;49.09;101964.91;5040845;28;20037;-54
2023/06/07 04:02:44;;;;;;;2.55;2.30;;;;;;;22.52;48.87;101960.47;5046737;28;20623;-54
2023/06/07 04:05:10;;;;;;;2.50;2.25;;;;;;;22.52;49.25;101966.75;5045348;28;20037;-54
2023/06/07 04:07:35;;;;;;;2.00;1.80;;;;;;;22.52;49.28;101966.75;5050232;28;20032;-54
2023/06/07 04:10:00;;;;;;;2.90;2.33;;;;;;;22.52;49.36;101965.91;5046375;28;20033;-54
2023/06/07 04:12:26;;;;;;;2.20;2.00;;;;;;;22.51;49.15;101970.47;5046694;28;20068;-54
2023/06/07 04:14:51;;;;;;;2.90;2.53;;;;;;;22.52;49.28;101969.47;5045665;28;20471;-53
2023/06/07 04:17:16;;;;;;;2.17;1.95;;;;;;;22.51;48.76;101961.50;5046889;28;20093;-53
2023/06/07 04:19:42;;;;;;;2.40;1.88;;;;;;;22.51;49.26;101962.34;5047108;28;20458;-54
2023/06/07 04:22:07;;;;;;;2.55;2.35;;;;;;;22.50;49.10;101971.47;5049572;28;20079;-54
2023/06/07 04:24:32;;;;;;;2.33;2.13;;;;;;;22.49;49.23;101967.06;5045968;28;20037;-54
2023/06/07 04:26:58;;;;;;;3.50;2.33;;;;;;;22.50;49.35;101965.19;5045077;28;20061;-54
2023/06/07 04:29:26;;;;;;;1.98;1.83;;;;;;;22.49;48.93;101967.06;5046913;28;20036;-54
2023/06/07 04:31:56;;;;;;;3.20;2.53;;;;;;;22.50;48.68;101965.19;5045888;28;20041;-54
2023/06/07 04:34:23;;;;;;;2.72;2.25;;;;;;;22.49;48.81;101958.91;5046556;28;20033;-54
2023/06/07 04:36:49;;;;;;;2.47;2.25;;;;;;;22.49;48.59;101964.34;5046654;28;20035;-54
2023/06/07 04:39:16;;;;;;;2.45;1.90;;;;;;;22.48;49.07;101973.47;5046871;28;20040;-54
2023/06/07 04:41:42;;;;;;;2.33;2.13;;;;;;;22.48;48.91;101967.22;5045498;28;20028;-54
2023/06/07 04:44:08;;;;;;;2.05;1.85;;;;;;;22.48;48.64;101976.19;5046195;28;20044;-54
2023/06/07 04:46:33;;;;;;;3.15;2.45;;;;;;;22.49;48.69;101987.94;5046267;28;20391;-54
2023/06/07 04:48:59;;;;;;;2.25;2.05;;;;;;;22.47;49.07;101992.66;5047637;28;20517;-54
2023/06/07 04:51:26;;;;;;;2.10;2.00;;;;;;;22.48;48.64;101983.50;5047638;28;20506;-53
2023/06/07 04:53:58;;;;;;;2.40;2.20;;;;;;;22.47;48.76;101982.66;5045883;28;20089;-54
2023/06/07 04:56:25;;;;;;;2.08;1.90;;;;;;;22.48;48.96;101980.78;5046115;28;20163;-54
2023/06/07 04:58:52;;;;;;;2.08;1.88;;;;;;;22.47;48.59;101981.78;5047899;28;20033;-54
2023/06/07 05:01:18;;;;;;;2.67;2.03;;;;;;;22.47;48.55;101976.38;5044586;28;20029;-54
2023/06/07 05:03:43;;;;;;;2.50;1.90;;;;;;;22.47;49.02;101973.66;5045531;28;20045;-54
2023/06/07 05:06:09;;;;;;;2.38;2.00;;;;;;;22.45;48.88;101974.66;5047350;28;20033;-53
2023/06/07 05:08:35;;;;;;;3.33;2.30;;;;;;;22.44;48.92;101972.91;5048973;28;20033;-54
2023/06/07 05:11:00;;;;;;;3.05;2.38;;;;;;;22.45;48.83;101973.81;5049263;28;20044;-54
2023/06/07 05:13:26;;;;;;;2.30;2.10;;;;;;;22.45;48.80;101974.66;5049418;28;20029;-54
2023/06/07 05:15:52;;;;;;;3.78;2.60;;;;;;;22.46;49.07;101980.91;5050002;28;20038;-54
2023/06/07 05:18:19;;;;;;;3.15;2.15;;;;;;;22.44;48.98;101977.50;5048676;28;20036;-54
2023/06/07 05:20:46;;;;;;;2.30;2.10;;;;;;;22.45;48.64;101979.22;5048936;28;20040;-54
2023/06/07 05:23:16;;;;;;;2.15;1.83;;;;;;;22.44;48.47;101982.94;5056062;28;20025;-54
2023/06/07 05:25:43;;;;;;;2.83;2.40;;;;;;;22.43;48.95;101987.50;5052961;28;20388;-54
2023/06/07 05:28:09;;;;;;;2.60;2.08;;;;;;;22.44;48.99;101993.78;5049682;28;20087;-54
2023/06/07 05:30:34;;;;;;;2.08;1.95;;;;;;;22.43;48.51;101992.09;5048547;28;20479;-54
2023/06/07 05:33:00;;;;;;;2.13;1.90;;;;;;;22.44;49.05;101988.34;5048857;28;20041;-54
2023/06/07 05:35:25;;;;;;;2.33;2.13;;;;;;;22.43;49.34;101986.66;5049178;28;20033;-54
2023/06/07 05:37:51;;;;;;;2.90;2.03;;;;;;;22.42;48.99;101995.78;5048426;28;20064;-54
2023/06/07 05:40:18;;;;;;;2.50;2.30;;;;;;;22.42;48.38;101993.06;5048434;28;20108;-55
2023/06/07 05:42:44;;;;;;;1.67;1.58;;;;;;;22.42;48.79;101998.50;5048851;28;20443;-55
2023/06/07 05:45:10;;;;;;;3.20;2.28;;;;;;;22.42;49.10;101991.22;5045916;28;20069;-55
2023/06/07 05:47:35;;;;;;;2.20;1.88;;;;;;;22.42;48.73;101993.94;5045606;28;20085;-56
2023/06/07 05:50:01;;;;;;;1.88;1.77;;;;;;;22.42;48.97;101991.22;5049576;28;20037;-55
2023/06/07 05:52:26;;;;;;;2.42;2.22;;;;;;;22.42;48.97;101990.38;5049567;28;20035;-55
2023/06/07 05:54:54;;;;;;;2.30;2.10;;;;;;;22.41;48.64;101992.22;5049123;28;20039;-55
2023/06/07 05:57:20;;;;;;;2.38;2.20;;;;;;;22.41;48.97;101994.94;5048731;28;20033;-55
2023/06/07 05:59:45;;;;;;;2.38;2.15;;;;;;;22.41;48.61;101994.94;5055721;28;20190;-55
2023/06/07 06:02:10;;;;;;;2.53;2.08;;;;;;;22.42;48.87;102001.22;5048343;28;20083;-55
2023/06/07 06:04:36;;;;;;;2.60;2.40;;;;;;;22.41;48.73;102002.25;5048272;28;20115;-55
2023/06/07 06:07:02;;;;;;;2.13;1.95;;;;;;;22.42;48.62;102009.38;5048316;28;20036;-56
2023/06/07 06:09:28;;;;;;;3.58;2.30;;;;;;;22.41;48.62;102015.81;5048645;28;20090;-56
2023/06/07 06:11:55;;;;;;;2.50;2.05;;;;;;;22.41;48.82;102011.22;5047904;28;20040;-55
2023/06/07 06:14:21;;;;;;;2.05;1.85;;;;;;;22.40;49.04;102011.38;5047936;28;20107;-55
2023/06/07 06:16:46;;;;;;;2.50;1.90;;;;;;;22.41;48.97;102010.38;5046696;28;20119;-55
2023/06/07 06:19:12;;;;;;;2.42;1.90;;;;;;;22.41;49.00;102007.66;5047905;28;20037;-55
2023/06/07 06:21:37;;;;;;;2.22;2.03;;;;;;;22.40;48.39;102011.38;5047508;28;20035;-55
2023/06/07 06:24:03;;;;;;;2.50;2.00;;;;;;;22.41;48.39;102007.66;5051250;28;20033;-55
2023/06/07 06:26:29;;;;;;;2.35;1.90;;;;;;;22.41;49.03;102015.81;5048345;28;20504;-55
2023/06/07 06:28:54;;;;;;;2.72;1.90;;;;;;;22.40;48.75;102011.38;5048428;28;20029;-56
2023/06/07 06:31:20;;;;;;;2.25;2.05;;;;;;;22.41;48.70;102013.09;5047014;28;20436;-55
2023/06/07 06:33:45;;;;;;;1.98;1.88;;;;;;;22.41;48.58;102013.09;5047287;28;20032;-55
2023/06/07 06:36:11;;;;;;;2.35;1.60;;;;;;;22.41;48.40;102010.38;5047908;28;20025;-55
2023/06/07 06:38:36;;;;;;;2.58;1.80;;;;;;;22.40;48.79;102014.94;5047963;28;20029;-55
2023/06/07 06:41:02;;;;;;;2.38;1.73;;;;;;;22.41;48.46;102013.09;5046776;28;20029;-55
2023/06/07 06:43:27;;;;;;;2.42;2.22;;;;;;;22.41;48.85;102021.25;5048179;28;20045;-56
2023/06/07 06:45:53;;;;;;;3.25;1.98;;;;;;;22.40;48.50;102030.38;5047831;28;20386;-55
2023/06/07 06:48:18;;;;;;;3.13;1.85;;;;;;;22.40;48.93;102033.06;5047590;28;20045;-55
2023/06/07 06:50:46;;;;;;;2.20;2.00;;;;;;;22.40;48.68;102030.38;5046749;28;20404;-55
2023/06/07 06:53:12;;;;;;;3.03;2.17;;;;;;;22.40;48.40;102035.78;5049931;28;20072;-55
2023/06/07 06:55:37;;;;;;;4.25;2.25;;;;;;;22.39;48.42;102034.94;5090064;28;20484;-55
2023/06/07 06:58:03;;;;;;;2.05;1.85;;;;;;;22.40;48.44;102030.38;5047999;28;20120;-55
2023/06/07 07:00:29;;;;;;;2.47;1.70;;;;;;;22.39;48.56;102029.53;5050471;28;20118;-55
2023/06/07 07:02:54;;;;;;;2.17;1.73;;;;;;;22.38;48.92;102030.50;5047770;28;20353;-55
2023/06/07 07:05:19;;;;;;;1.63;1.52;;;;;;;22.40;48.86;102035.78;5047567;28;20052;-55
2023/06/07 07:07:45;;;;;;;1.63;1.52;;;;;;;22.40;48.75;102035.78;5046411;28;20107;-56
2023/06/07 07:10:11;;;;;;;2.97;1.83;;;;;;;22.40;48.76;102049.38;5047086;28;20033;-55
2023/06/07 07:12:40;;;;;;;2.00;1.80;;;;;;;22.39;48.93;102040.38;5046869;28;20124;-55
2023/06/07 07:15:05;;;;;;;2.00;1.80;;;;;;;22.39;48.50;102050.34;5043840;28;20041;-55
2023/06/07 07:17:31;;;;;;;1.77;1.65;;;;;;;22.38;48.44;102044.06;5048957;28;20036;-56
2023/06/07 07:19:56;;;;;;;2.42;1.85;;;;;;;22.39;48.59;102050.34;5046684;28;20044;-55
2023/06/07 07:22:22;;;;;;;2.30;2.10;;;;;;;22.40;48.55;102038.50;5049893;28;20037;-56
2023/06/07 07:24:47;;;;;;;1.80;1.63;;;;;;;22.41;48.74;102048.38;5050524;28;20466;-56
2023/06/07 07:27:13;;;;;;;2.22;2.00;;;;;;;22.40;48.45;102049.38;5047241;28;20518;-55
2023/06/07 07:29:38;;;;;;;1.70;1.60;;;;;;;22.39;48.51;102043.09;5045609;28;20025;-55
2023/06/07 07:32:04;;;;;;;2.22;1.85;;;;;;;22.40;48.49;102042.06;5046662;28;20029;-55
2023/06/07 07:34:30;;;;;;;1.73;1.63;;;;;;;22.41;48.78;102048.38;5047363;28;20119;-56
2023/06/07 07:36:57;;;;;;;3.30;2.15;;;;;;;22.41;48.40;102059.22;5048525;28;20455;-56
2023/06/07 07:39:25;;;;;;;2.05;1.85;;;;;;;22.41;48.86;102067.38;5049474;28;20398;-56
2023/06/07 07:41:50;;;;;;;1.90;1.73;;;;;;;22.41;48.99;102054.66;5047391;28;20025;-56
2023/06/07 07:44:16;;;;;;;2.00;1.80;;;;;;;22.40;48.43;102047.50;5046522;28;20502;-56
2023/06/07 07:46:41;;;;;;;2.05;1.80;;;;;;;22.41;48.67;102051.94;5046716;28;20476;-56
2023/06/07 07:49:09;;;;;;;2.28;2.00;;;;;;;22.40;48.34;102052.94;5046949;28;20564;-56
2023/06/07 07:51:35;;;;;;;2.03;1.73;;;;;;;22.40;48.45;102046.66;5047623;28;20037;-56
2023/06/07 07:54:00;;;;;;;1.88;1.70;;;;;;;22.40;48.63;102047.50;5046443;28;20175;-56
2023/06/07 07:56:26;;;;;;;2.22;1.80;;;;;;;22.41;48.42;102051.94;5045277;28;20020;-56
2023/06/07 07:58:51;;;;;;;2.10;1.60;;;;;;;22.41;48.42;102070.09;5042514;28;20040;-56
2023/06/07 08:01:18;;;;;;;1.73;1.63;;;;;;;22.40;48.86;102062.94;5045885;28;20078;-56
2023/06/07 08:03:45;;;;;;;1.80;1.67;;;;;;;22.41;48.78;102059.22;5045974;28;20043;-56
2023/06/07 08:06:10;;;;;;;2.17;1.90;;;;;;;22.40;48.27;102066.50;5046324;28;20060;-56
2023/06/07 08:08:36;;;;;;;2.03;1.92;;;;;;;22.42;48.44;102063.63;5046638;28;20076;-56
2023/06/07 08:11:01;;;;;;;1.60;1.50;;;;;;;22.41;48.46;102057.38;5044096;28;20055;-56
2023/06/07 08:13:27;;;;;;;1.58;1.20;;;;;;;22.41;48.80;102056.53;5049448;28;20056;-56
2023/06/07 08:15:52;;;;;;;2.00;1.80;;;;;;;22.41;48.43;102051.09;5051044;28;20052;-56
2023/06/07 08:18:18;;;;;;;1.90;1.63;;;;;;;22.42;48.43;102050.06;5046413;28;20379;-56
2023/06/07 08:20:44;;;;;;;2.22;1.80;;;;;;;22.42;48.32;102044.63;5045325;28;20087;-56
2023/06/07 08:23:09;;;;;;;3.13;1.92;;;;;;;22.42;48.36;102042.78;5048146;28;20540;-56
2023/06/07 08:25:35;;;;;;;3.17;1.70;;;;;;;22.43;48.22;102051.78;5046137;28;20029;-56
2023/06/07 08:28:00;;;;;;;1.80;1.60;;;;;;;22.43;48.30;102066.22;5046718;28;20534;-56
2023/06/07 08:30:25;;;;;;;2.20;1.73;;;;;;;22.44;48.53;102050.78;5045174;28;20391;-56
2023/06/07 08:32:51;;;;;;;2.08;1.52;;;;;;;22.43;48.51;102044.50;5045445;28;20029;-56
2023/06/07 08:35:16;;;;;;;1.63;1.52;;;;;;;22.44;48.50;102048.06;5042678;28;20480;-56
2023/06/07 08:37:42;;;;;;;1.85;1.50;;;;;;;22.44;48.61;102048.06;5046245;28;20029;-56
2023/06/07 08:40:08;;;;;;;3.22;1.95;;;;;;;22.43;48.14;102047.22;5046637;28;20376;-56
2023/06/07 08:42:34;;;;;;;2.05;1.85;;;;;;;22.44;48.25;102048.06;5056575;28;20175;-56
2023/06/07 08:45:00;;;;;;;1.80;1.70;;;;;;;22.44;48.36;102042.63;5050665;28;20112;-56
2023/06/07 08:47:27;;;;;;;2.95;1.92;;;;;;;22.43;48.24;102039.06;5050326;28;20058;-56
2023/06/07 08:49:57;;;;;;;1.92;1.58;;;;;;;22.43;48.63;102041.78;5052016;28;20499;-56
2023/06/07 08:52:24;;;;;;;1.98;1.63;;;;;;;22.43;48.47;102041.78;5049685;28;20037;-55
2023/06/07 08:54:50;;;;;;;2.58;1.90;;;;;;;22.44;48.67;102048.06;5049936;28;20060;-56
2023/06/07 08:57:16;;;;;;;2.45;2.10;;;;;;;22.44;48.46;102043.47;5049917;28;20497;-56
2023/06/07 08:59:45;;;;;;;1.60;1.50;;;;;;;22.44;48.63;102048.06;5049647;28;20026;-56
2023/06/07 09:02:12;;;;;;;2.13;1.90;;;;;;;22.45;48.28;102045.22;5051160;28;20041;-56
2023/06/07 09:04:39;;;;;;;2.20;1.75;;;;;;;22.44;48.64;102046.19;5049446;28;20074;-56
2023/06/07 09:07:06;;;;;;;2.45;1.80;;;;;;;22.46;48.67;102048.78;5048334;28;20533;-56
2023/06/07 09:09:31;;;;;;;2.00;1.77;;;;;;;22.46;48.85;102048.78;5047600;28;20033;-56
2023/06/07 09:11:57;;;;;;;1.50;1.40;;;;;;;22.45;48.83;102045.22;5053820;28;20037;-55
2023/06/07 09:14:22;;;;;;;1.60;1.50;;;;;;;22.46;48.60;102040.63;5048949;28;20491;-56
2023/06/07 09:16:53;;;;;;;1.52;1.42;;;;;;;22.45;48.79;102047.91;5048657;28;20103;-56
2023/06/07 09:19:34;;;;;;;1.95;1.65;;;;;;;22.49;48.57;102047.63;5049732;28;20098;-56
2023/06/07 09:22:05;;;;;;;1.50;1.40;;;;;;;22.47;48.47;102045.06;5058312;28;20062;-56
2023/06/07 09:24:31;;;;;;;2.15;1.83;;;;;;;22.47;48.97;102046.94;5049120;28;20363;-56
2023/06/07 09:26:58;;;;;;;1.70;1.60;;;;;;;22.47;48.90;102047.78;5048868;28;20116;-56
2023/06/07 09:29:24;;;;;;;1.95;1.75;;;;;;;22.47;48.54;102047.78;5046361;28;20029;-56
2023/06/07 09:31:49;;;;;;;1.60;1.50;;;;;;;22.47;48.49;102046.94;5054043;28;20043;-56
2023/06/07 09:34:23;;;;;;;1.98;1.77;;;;;;;22.47;48.89;102042.34;5048380;28;20033;-56
2023/06/07 09:36:56;;;;;;;1.65;1.55;;;;;;;22.49;48.44;102050.34;5048430;28;20031;-56
2023/06/07 09:39:23;;;;;;;1.58;1.48;;;;;;;22.49;48.57;102055.78;5048729;28;20044;-56
2023/06/07 09:41:57;;;;;;;1.83;1.73;;;;;;;22.49;48.40;102037.63;5048921;28;20051;-56
2023/06/07 09:44:27;;;;;;;2.45;1.63;;;;;;;22.50;48.96;102044.75;5053441;28;20431;-56
2023/06/07 09:46:53;;;;;;;1.80;1.50;;;;;;;22.51;48.82;102043.75;5048570;28;20430;-56
2023/06/07 09:49:25;;;;;;;2.13;1.85;;;;;;;22.49;48.98;102034.91;5047483;28;20320;-56
2023/06/07 09:51:52;;;;;;;1.90;1.70;;;;;;;22.50;48.58;102039.31;5048453;28;20029;-56
2023/06/07 09:54:19;;;;;;;2.17;1.90;;;;;;;22.50;49.07;102039.31;5048086;28;20065;-56
2023/06/07 09:56:45;;;;;;;1.60;1.50;;;;;;;22.51;48.70;102042.91;5048081;28;20029;-56
2023/06/07 09:59:13;;;;;;;2.45;1.63;;;;;;;22.52;48.56;102042.75;5050028;28;20040;-56
2023/06/07 10:01:43;;;;;;;1.60;1.50;;;;;;;22.51;48.93;102046.47;5048944;28;20033;-56
2023/06/07 10:04:10;;;;;;;1.92;1.50;;;;;;;22.51;48.55;102043.75;5047040;28;20387;-56
2023/06/07 10:06:43;;;;;;;1.83;1.60;;;;;;;22.53;48.54;102040.91;5048444;28;20037;-56
2023/06/07 10:09:10;;;;;;;2.05;1.45;;;;;;;22.52;48.90;102039.19;5052805;28;20121;-56
2023/06/07 10:11:38;;;;;;;1.50;1.40;;;;;;;22.52;48.46;102040.03;5048693;28;20025;-56
2023/06/07 10:14:09;;;;;;;1.52;1.42;;;;;;;22.53;48.46;102038.19;5044331;28;20033;-56
2023/06/07 10:16:36;;;;;;;1.50;1.40;;;;;;;22.53;48.92;102032.78;5049094;28;20021;-56
2023/06/07 10:19:36;;;;;;;1.52;1.42;;;;;;;22.56;49.01;102036.03;5047929;28;20028;-56
2023/06/07 10:22:04;;;;;;;1.77;1.48;;;;;;;22.54;48.79;102040.78;5047447;28;20043;-56
2023/06/07 10:24:35;;;;;;;1.90;1.70;;;;;;;22.54;49.04;102035.34;5047715;28;20043;-56
2023/06/07 10:27:10;;;;;;;1.80;1.60;;;;;;;22.54;49.05;102037.19;5054816;28;20079;-56
2023/06/07 10:29:39;;;;;;;1.40;1.30;;;;;;;22.55;49.01;102031.59;5046269;28;20084;-56
2023/06/07 10:32:15;;;;;;;1.40;1.30;;;;;;;22.55;48.58;102034.31;5047974;28;20029;-56
2023/06/07 10:34:45;;;;;;;1.83;1.67;;;;;;;22.55;49.01;102033.47;5047781;28;20037;-56
2023/06/07 10:37:14;;;;;;;1.80;1.70;;;;;;;22.56;48.70;102043.31;5048205;28;20357;-56
2023/06/07 10:39:40;;;;;;;1.92;1.50;;;;;;;22.56;49.13;102043.31;5047057;28;20124;-56
2023/06/07 10:42:06;;;;;;;2.55;1.50;;;;;;;22.56;48.67;102036.03;5047278;28;20120;-56
2023/06/07 10:44:32;;;;;;;1.65;1.40;;;;;;;22.56;48.88;102036.03;5047378;28;20070;-56
2023/06/07 10:47:19;;;;;;;1.60;1.50;;;;;;;22.59;49.19;102033.00;5047771;28;20064;-56
2023/06/07 10:49:45;;;;;;;1.70;1.52;;;;;;;22.57;48.64;102026.88;5043563;28;20124;-56
2023/06/07 10:52:14;;;;;;;1.75;1.65;;;;;;;22.57;49.01;102021.44;5048261;28;20140;-57
2023/06/07 10:54:41;;;;;;;1.80;1.40;;;;;;;22.57;49.19;102020.59;5048301;28;20039;-56
2023/06/07 10:57:06;;;;;;;2.72;1.67;;;;;;;22.58;49.13;102016.88;5047496;28;20146;-56
2023/06/07 10:59:32;;;;;;;1.63;1.52;;;;;;;22.58;49.06;102023.19;5050015;28;20107;-56
2023/06/07 11:02:19;;;;;;;2.67;1.75;;;;;;;22.60;49.02;102015.75;5051208;28;20063;-56
2023/06/07 11:04:51;;;;;;;1.50;1.40;;;;;;;22.58;48.72;102017.75;5052522;28;20037;-56
2023/06/07 11:07:22;;;;;;;3.17;1.67;;;;;;;22.57;49.26;102024.16;5046372;28;20075;-56
2023/06/07 11:09:49;;;;;;;1.35;1.23;;;;;;;22.58;48.89;102025.00;5046838;28;20479;-56
2023/06/07 11:12:40;;;;;;;1.80;1.63;;;;;;;22.62;49.29;102018.31;5046990;28;20056;-56
2023/06/07 11:15:21;;;;;;;1.73;1.55;;;;;;;22.59;49.20;102019.44;5047465;28;20385;-56
2023/06/07 11:17:53;;;;;;;;;;;;;;;22.71;49.17;102011.13;5044119;28;20489;-56
2023/06/07 11:20:37;;;;;;;1.48;1.38;;;;;;;22.63;49.02;102020.84;5046981;28;19998;-56
2023/06/07 11:23:23;;;;;;;1.60;1.50;;;;;;;22.64;48.96;102013.59;5042620;28;20124;-56
2023/06/07 11:25:51;;;;;;;1.42;1.33;;;;;;;22.61;48.77;102001.16;5047778;28;20035;-56